sensor_id;sensor_type;location;lat;lon;timestamp;temperature;humidity
50013;DHT22;35901;48.694;9.476;2023-04-10T00:02:19;3.90;99.90
50013;DHT22;35901;48.694;9.476;2023-04-10T00:04:45;3.30;99.90
50013;DHT22;35901;48.694;9.476;2023-04-10T00:07:11;2.90;99.90
50013;DHT22;35901;48.694;9.476;2023-04-10T00:09:37;2.70;99.90
50013;DHT22;35901;48.694;9.476;2023-04-10T00:12:03;2.60;99.90
50013;DHT22;35901;48.694;9.476;2023-04-10T00:14:29;2.20;99.90
50013;DHT22;35901;48.694;9.476;2023-04-10T00:16:55;2.10;99.90
50013;DHT22;35901;48.694;9.476;2023-04-10T00:19:20;2.00;99.90
50013;DHT22;35901;48.694;9.476;2023-04-10T00:21:46;2.00;99.90
50013;DHT22;35901;48.694;9.476;2023-04-10T00:24:12;1.90;99.90
50013;DHT22;35901;48.694;9.476;2023-04-10T00:26:39;1.80;99.90
50013;DHT22;35901;48.694;9.476;2023-04-10T00:29:05;1.70;99.90
50013;DHT22;35901;48.694;9.476;2023-04-10T00:31:31;1.50;99.90
50013;DHT22;35901;48.694;9.476;2023-04-10T00:33:56;1.50;99.90
50013;DHT22;35901;48.694;9.476;2023-04-10T00:36:22;1.50;99.90
50013;DHT22;35901;48.694;9.476;2023-04-10T00:38:48;1.60;99.90
50013;DHT22;35901;48.694;9.476;2023-04-10T00:41:16;1.50;99.90
50013;DHT22;35901;48.694;9.476;2023-04-10T00:43:43;1.50;99.90
50013;DHT22;35901;48.694;9.476;2023-04-10T00:46:09;1.50;99.90
50013;DHT22;35901;48.694;9.476;2023-04-10T00:48:36;1.50;99.90
50013;DHT22;35901;48.694;9.476;2023-04-10T00:51:02;1.40;99.90
50013;DHT22;35901;48.694;9.476;2023-04-10T00:53:28;1.60;99.90
50013;DHT22;35901;48.694;9.476;2023-04-10T00:55:55;1.70;99.90
50013;DHT22;35901;48.694;9.476;2023-04-10T00:58:20;1.80;99.90
50013;DHT22;35901;48.694;9.476;2023-04-10T01:00:47;1.80;99.90
50013;DHT22;35901;48.694;9.476;2023-04-10T01:03:14;1.90;99.90
50013;DHT22;35901;48.694;9.476;2023-04-10T01:05:46;1.80;99.90
50013;DHT22;35901;48.694;9.476;2023-04-10T01:11:05;1.90;99.90
50013;DHT22;35901;48.694;9.476;2023-04-10T01:13:49;2.00;99.90
50013;DHT22;35901;48.694;9.476;2023-04-10T01:16:22;2.00;99.90
50013;DHT22;35901;48.694;9.476;2023-04-10T01:18:53;1.70;99.90
50013;DHT22;35901;48.694;9.476;2023-04-10T01:21:22;1.60;99.90
50013;DHT22;35901;48.694;9.476;2023-04-10T01:26:41;1.60;99.90
50013;DHT22;35901;48.694;9.476;2023-04-10T01:29:17;1.50;99.90
50013;DHT22;35901;48.694;9.476;2023-04-10T01:31:51;1.40;99.90
50013;DHT22;35901;48.694;9.476;2023-04-10T01:37:32;1.20;99.90
50013;DHT22;35901;48.694;9.476;2023-04-10T01:40:01;1.10;99.90
50013;DHT22;35901;48.694;9.476;2023-04-10T01:42:31;1.10;99.90
50013;DHT22;35901;48.694;9.476;2023-04-10T01:45:00;0.90;99.90
50013;DHT22;35901;48.694;9.476;2023-04-10T01:47:26;0.70;99.90
50013;DHT22;35901;48.694;9.476;2023-04-10T01:49:54;0.60;99.90
50013;DHT22;35901;48.694;9.476;2023-04-10T01:52:22;0.60;99.90
50013;DHT22;35901;48.694;9.476;2023-04-10T01:54:58;0.50;99.90
50013;DHT22;35901;48.694;9.476;2023-04-10T01:57:35;0.40;99.90
50013;DHT22;35901;48.694;9.476;2023-04-10T02:00:02;0.40;99.90
50013;DHT22;35901;48.694;9.476;2023-04-10T02:02:32;0.50;99.90
50013;DHT22;35901;48.694;9.476;2023-04-10T02:04:58;0.50;99.90
50013;DHT22;35901;48.694;9.476;2023-04-10T02:07:30;0.50;99.90
50013;DHT22;35901;48.694;9.476;2023-04-10T02:12:51;0.50;99.90
50013;DHT22;35901;48.694;9.476;2023-04-10T02:15:23;0.40;99.90
50013;DHT22;35901;48.694;9.476;2023-04-10T02:17:50;0.40;99.90
50013;DHT22;35901;48.694;9.476;2023-04-10T02:20:16;0.50;99.90
50013;DHT22;35901;48.694;9.476;2023-04-10T02:22:45;0.80;99.90
50013;DHT22;35901;48.694;9.476;2023-04-10T02:25:11;1.20;99.90
50013;DHT22;35901;48.694;9.476;2023-04-10T02:27:38;1.40;99.90
50013;DHT22;35901;48.694;9.476;2023-04-10T02:30:04;1.80;99.90
50013;DHT22;35901;48.694;9.476;2023-04-10T02:32:33;2.00;99.90
50013;DHT22;35901;48.694;9.476;2023-04-10T02:34:59;2.20;99.90
50013;DHT22;35901;48.694;9.476;2023-04-10T02:37:26;2.00;99.90
50013;DHT22;35901;48.694;9.476;2023-04-10T02:39:52;1.60;99.90
50013;DHT22;35901;48.694;9.476;2023-04-10T02:42:21;1.10;99.90
50013;DHT22;35901;48.694;9.476;2023-04-10T02:44:48;0.70;99.90
50013;DHT22;35901;48.694;9.476;2023-04-10T02:47:14;0.50;99.90
50013;DHT22;35901;48.694;9.476;2023-04-10T02:49:44;0.40;99.90
50013;DHT22;35901;48.694;9.476;2023-04-10T02:52:13;0.40;99.90
50013;DHT22;35901;48.694;9.476;2023-04-10T02:54:39;0.30;99.90
50013;DHT22;35901;48.694;9.476;2023-04-10T02:57:05;0.20;99.90
50013;DHT22;35901;48.694;9.476;2023-04-10T02:59:31;0.20;99.90
50013;DHT22;35901;48.694;9.476;2023-04-10T03:01:58;0.00;99.90
50013;DHT22;35901;48.694;9.476;2023-04-10T03:04:24;-0.10;99.90
50013;DHT22;35901;48.694;9.476;2023-04-10T03:06:50;-0.20;99.90
50013;DHT22;35901;48.694;9.476;2023-04-10T03:09:15;-0.30;99.90
50013;DHT22;35901;48.694;9.476;2023-04-10T03:11:41;-0.20;99.90
50013;DHT22;35901;48.694;9.476;2023-04-10T03:14:07;-0.20;99.90
50013;DHT22;35901;48.694;9.476;2023-04-10T03:16:34;-0.20;99.90
50013;DHT22;35901;48.694;9.476;2023-04-10T03:19:02;-0.10;99.90
50013;DHT22;35901;48.694;9.476;2023-04-10T03:21:28;0.00;99.90
50013;DHT22;35901;48.694;9.476;2023-04-10T03:23:54;-0.10;99.90
50013;DHT22;35901;48.694;9.476;2023-04-10T03:26:20;-0.30;99.90
50013;DHT22;35901;48.694;9.476;2023-04-10T03:28:49;-0.50;99.90
50013;DHT22;35901;48.694;9.476;2023-04-10T03:31:15;-0.70;99.90
50013;DHT22;35901;48.694;9.476;2023-04-10T03:33:43;-0.80;99.90
50013;DHT22;35901;48.694;9.476;2023-04-10T03:36:08;-0.90;99.90
50013;DHT22;35901;48.694;9.476;2023-04-10T03:38:35;-0.90;99.90
50013;DHT22;35901;48.694;9.476;2023-04-10T03:41:02;-0.90;99.90
50013;DHT22;35901;48.694;9.476;2023-04-10T03:43:30;-1.00;99.90
50013;DHT22;35901;48.694;9.476;2023-04-10T03:45:56;-0.70;99.90
50013;DHT22;35901;48.694;9.476;2023-04-10T03:48:22;-0.40;99.90
50013;DHT22;35901;48.694;9.476;2023-04-10T03:50:48;-0.30;99.90
50013;DHT22;35901;48.694;9.476;2023-04-10T03:53:14;-0.30;99.90
50013;DHT22;35901;48.694;9.476;2023-04-10T03:55:41;-0.10;99.90
50013;DHT22;35901;48.694;9.476;2023-04-10T03:58:08;0.10;99.90
50013;DHT22;35901;48.694;9.476;2023-04-10T04:00:35;0.30;99.90
50013;DHT22;35901;48.694;9.476;2023-04-10T04:03:10;0.30;99.90
50013;DHT22;35901;48.694;9.476;2023-04-10T04:05:51;0.50;99.90
50013;DHT22;35901;48.694;9.476;2023-04-10T04:08:35;0.50;99.90
50013;DHT22;35901;48.694;9.476;2023-04-10T04:11:11;0.70;99.90
50013;DHT22;35901;48.694;9.476;2023-04-10T04:13:51;0.80;99.90
50013;DHT22;35901;48.694;9.476;2023-04-10T04:16:46;0.70;99.90
50013;DHT22;35901;48.694;9.476;2023-04-10T04:19:30;0.30;99.90
50013;DHT22;35901;48.694;9.476;2023-04-10T04:22:14;0.00;99.90
50013;DHT22;35901;48.694;9.476;2023-04-10T04:25:01;-0.20;99.90
50013;DHT22;35901;48.694;9.476;2023-04-10T04:27:48;-0.30;99.90
50013;DHT22;35901;48.694;9.476;2023-04-10T04:30:32;-0.30;99.90
50013;DHT22;35901;48.694;9.476;2023-04-10T04:33:29;-0.30;99.90
50013;DHT22;35901;48.694;9.476;2023-04-10T04:36:01;-0.40;99.90
50013;DHT22;35901;48.694;9.476;2023-04-10T04:38:47;-0.40;99.90
50013;DHT22;35901;48.694;9.476;2023-04-10T04:41:31;-0.50;99.90
50013;DHT22;35901;48.694;9.476;2023-04-10T04:44:14;-0.60;99.90
50013;DHT22;35901;48.694;9.476;2023-04-10T04:46:58;-0.50;99.90
50013;DHT22;35901;48.694;9.476;2023-04-10T04:49:42;-0.40;99.90
50013;DHT22;35901;48.694;9.476;2023-04-10T04:52:10;-0.30;99.90
50013;DHT22;35901;48.694;9.476;2023-04-10T04:54:40;-0.20;99.90
50013;DHT22;35901;48.694;9.476;2023-04-10T04:57:14;-0.10;99.90
50013;DHT22;35901;48.694;9.476;2023-04-10T05:00:02;-0.20;99.90
50013;DHT22;35901;48.694;9.476;2023-04-10T05:02:46;0.10;99.90
50013;DHT22;35901;48.694;9.476;2023-04-10T05:05:35;0.20;99.90
50013;DHT22;35901;48.694;9.476;2023-04-10T05:08:21;0.80;99.90
50013;DHT22;35901;48.694;9.476;2023-04-10T05:10:55;1.60;99.90
50013;DHT22;35901;48.694;9.476;2023-04-10T05:13:39;2.30;99.90
50013;DHT22;35901;48.694;9.476;2023-04-10T05:16:20;3.10;99.90
50013;DHT22;35901;48.694;9.476;2023-04-10T05:19:05;3.90;99.90
50013;DHT22;35901;48.694;9.476;2023-04-10T05:21:50;4.30;99.90
50013;DHT22;35901;48.694;9.476;2023-04-10T05:24:43;4.80;99.90
50013;DHT22;35901;48.694;9.476;2023-04-10T05:27:32;5.00;99.90
50013;DHT22;35901;48.694;9.476;2023-04-10T05:30:16;5.10;99.90
50013;DHT22;35901;48.694;9.476;2023-04-10T05:33:01;5.10;99.90
50013;DHT22;35901;48.694;9.476;2023-04-10T05:35:56;5.10;99.90
50013;DHT22;35901;48.694;9.476;2023-04-10T05:38:34;5.40;99.90
50013;DHT22;35901;48.694;9.476;2023-04-10T05:41:14;5.70;99.90
50013;DHT22;35901;48.694;9.476;2023-04-10T05:43:59;6.20;99.90
50013;DHT22;35901;48.694;9.476;2023-04-10T05:46:44;6.50;99.90
50013;DHT22;35901;48.694;9.476;2023-04-10T05:49:42;6.60;99.90
50013;DHT22;35901;48.694;9.476;2023-04-10T05:52:33;6.90;99.90
50013;DHT22;35901;48.694;9.476;2023-04-10T05:55:21;7.20;99.90
50013;DHT22;35901;48.694;9.476;2023-04-10T05:57:54;7.20;99.90
50013;DHT22;35901;48.694;9.476;2023-04-10T06:00:33;7.40;99.90
50013;DHT22;35901;48.694;9.476;2023-04-10T06:03:21;7.70;99.90
50013;DHT22;35901;48.694;9.476;2023-04-10T06:05:53;8.20;99.90
50013;DHT22;35901;48.694;9.476;2023-04-10T06:08:19;8.30;99.90
50013;DHT22;35901;48.694;9.476;2023-04-10T06:10:48;8.40;99.90
50013;DHT22;35901;48.694;9.476;2023-04-10T06:13:14;8.40;99.90
50013;DHT22;35901;48.694;9.476;2023-04-10T06:15:40;8.70;99.90
50013;DHT22;35901;48.694;9.476;2023-04-10T06:18:06;8.30;99.90
50013;DHT22;35901;48.694;9.476;2023-04-10T06:20:32;8.20;99.90
50013;DHT22;35901;48.694;9.476;2023-04-10T06:22:58;8.20;99.90
50013;DHT22;35901;48.694;9.476;2023-04-10T06:25:23;8.70;99.90
50013;DHT22;35901;48.694;9.476;2023-04-10T06:27:50;9.70;99.30
50013;DHT22;35901;48.694;9.476;2023-04-10T06:30:16;10.10;98.50
50013;DHT22;35901;48.694;9.476;2023-04-10T06:32:41;10.10;97.70
50013;DHT22;35901;48.694;9.476;2023-04-10T06:35:08;10.80;96.70
50013;DHT22;35901;48.694;9.476;2023-04-10T06:37:34;10.70;95.80
50013;DHT22;35901;48.694;9.476;2023-04-10T06:40:06;10.50;95.90
50013;DHT22;35901;48.694;9.476;2023-04-10T06:42:33;10.80;95.30
50013;DHT22;35901;48.694;9.476;2023-04-10T06:45:06;11.00;94.90
50013;DHT22;35901;48.694;9.476;2023-04-10T06:47:32;10.90;95.20
50013;DHT22;35901;48.694;9.476;2023-04-10T06:49:58;10.80;95.40
50013;DHT22;35901;48.694;9.476;2023-04-10T06:52:24;11.00;95.20
50013;DHT22;35901;48.694;9.476;2023-04-10T06:54:49;10.90;95.10
50013;DHT22;35901;48.694;9.476;2023-04-10T06:57:15;11.00;94.20
50013;DHT22;35901;48.694;9.476;2023-04-10T06:59:41;11.00;94.10
50013;DHT22;35901;48.694;9.476;2023-04-10T07:02:07;11.00;95.20
50013;DHT22;35901;48.694;9.476;2023-04-10T07:04:33;11.40;94.10
50013;DHT22;35901;48.694;9.476;2023-04-10T07:06:58;11.30;94.20
50013;DHT22;35901;48.694;9.476;2023-04-10T07:09:25;11.40;93.90
50013;DHT22;35901;48.694;9.476;2023-04-10T07:11:51;11.60;94.10
50013;DHT22;35901;48.694;9.476;2023-04-10T07:14:17;11.80;94.60
50013;DHT22;35901;48.694;9.476;2023-04-10T07:16:43;12.40;94.00
50013;DHT22;35901;48.694;9.476;2023-04-10T07:19:08;12.80;93.20
50013;DHT22;35901;48.694;9.476;2023-04-10T07:21:34;12.60;92.90
50013;DHT22;35901;48.694;9.476;2023-04-10T07:24:00;12.30;91.90
50013;DHT22;35901;48.694;9.476;2023-04-10T07:26:26;12.60;92.80
50013;DHT22;35901;48.694;9.476;2023-04-10T07:28:51;12.70;92.00
50013;DHT22;35901;48.694;9.476;2023-04-10T07:31:17;13.00;92.10
50013;DHT22;35901;48.694;9.476;2023-04-10T07:33:44;13.40;91.30
50013;DHT22;35901;48.694;9.476;2023-04-10T07:36:11;13.50;93.10
50013;DHT22;35901;48.694;9.476;2023-04-10T07:38:37;14.00;91.30
50013;DHT22;35901;48.694;9.476;2023-04-10T07:41:03;14.20;90.90
50013;DHT22;35901;48.694;9.476;2023-04-10T07:43:30;14.30;88.50
50013;DHT22;35901;48.694;9.476;2023-04-10T07:45:56;14.70;87.20
50013;DHT22;35901;48.694;9.476;2023-04-10T07:48:22;14.70;85.00
50013;DHT22;35901;48.694;9.476;2023-04-10T07:50:48;14.70;86.00
50013;DHT22;35901;48.694;9.476;2023-04-10T07:53:13;14.50;89.90
50013;DHT22;35901;48.694;9.476;2023-04-10T07:55:44;14.60;86.30
50013;DHT22;35901;48.694;9.476;2023-04-10T07:58:13;14.60;86.90
50013;DHT22;35901;48.694;9.476;2023-04-10T08:00:38;14.40;84.60
50013;DHT22;35901;48.694;9.476;2023-04-10T08:03:04;14.40;82.80
50013;DHT22;35901;48.694;9.476;2023-04-10T08:05:30;14.40;85.70
50013;DHT22;35901;48.694;9.476;2023-04-10T08:07:58;14.60;84.20
50013;DHT22;35901;48.694;9.476;2023-04-10T08:10:24;14.80;82.00
50013;DHT22;35901;48.694;9.476;2023-04-10T08:12:49;15.00;82.00
50013;DHT22;35901;48.694;9.476;2023-04-10T08:15:16;15.10;81.00
50013;DHT22;35901;48.694;9.476;2023-04-10T08:17:43;15.20;81.80
50013;DHT22;35901;48.694;9.476;2023-04-10T08:20:10;15.10;79.10
50013;DHT22;35901;48.694;9.476;2023-04-10T08:22:36;14.90;84.10
50013;DHT22;35901;48.694;9.476;2023-04-10T08:25:03;15.30;83.10
50013;DHT22;35901;48.694;9.476;2023-04-10T08:27:28;15.60;81.10
50013;DHT22;35901;48.694;9.476;2023-04-10T08:29:55;15.40;77.50
50013;DHT22;35901;48.694;9.476;2023-04-10T08:32:21;15.40;79.50
50013;DHT22;35901;48.694;9.476;2023-04-10T08:34:47;15.30;82.80
50013;DHT22;35901;48.694;9.476;2023-04-10T08:37:13;15.60;79.50
50013;DHT22;35901;48.694;9.476;2023-04-10T08:39:40;15.60;80.20
50013;DHT22;35901;48.694;9.476;2023-04-10T08:42:06;15.50;81.30
50013;DHT22;35901;48.694;9.476;2023-04-10T08:44:33;15.30;81.70
50013;DHT22;35901;48.694;9.476;2023-04-10T08:47:01;15.30;78.10
50013;DHT22;35901;48.694;9.476;2023-04-10T08:49:57;15.20;77.30
50013;DHT22;35901;48.694;9.476;2023-04-10T08:52:29;14.80;78.60
50013;DHT22;35901;48.694;9.476;2023-04-10T08:54:59;14.70;75.80
50013;DHT22;35901;48.694;9.476;2023-04-10T08:57:27;14.80;80.80
50013;DHT22;35901;48.694;9.476;2023-04-10T08:59:54;15.00;79.50
50013;DHT22;35901;48.694;9.476;2023-04-10T09:02:20;15.10;81.10
50013;DHT22;35901;48.694;9.476;2023-04-10T09:04:48;15.10;74.90
50013;DHT22;35901;48.694;9.476;2023-04-10T09:07:15;14.90;78.40
50013;DHT22;35901;48.694;9.476;2023-04-10T09:09:41;15.00;78.70
50013;DHT22;35901;48.694;9.476;2023-04-10T09:12:07;15.20;74.50
50013;DHT22;35901;48.694;9.476;2023-04-10T09:14:33;15.20;78.40
50013;DHT22;35901;48.694;9.476;2023-04-10T09:19:36;15.30;77.20
50013;DHT22;35901;48.694;9.476;2023-04-10T09:22:02;15.20;76.70
50013;DHT22;35901;48.694;9.476;2023-04-10T09:24:28;15.50;79.50
50013;DHT22;35901;48.694;9.476;2023-04-10T09:26:54;15.70;77.90
50013;DHT22;35901;48.694;9.476;2023-04-10T09:29:20;16.00;78.30
50013;DHT22;35901;48.694;9.476;2023-04-10T09:31:45;16.10;76.30
50013;DHT22;35901;48.694;9.476;2023-04-10T09:34:12;16.20;76.80
50013;DHT22;35901;48.694;9.476;2023-04-10T09:36:43;16.10;74.40
50013;DHT22;35901;48.694;9.476;2023-04-10T09:39:10;15.80;71.80
50013;DHT22;35901;48.694;9.476;2023-04-10T09:41:52;16.30;75.30
50013;DHT22;35901;48.694;9.476;2023-04-10T09:44:28;16.80;70.90
50013;DHT22;35901;48.694;9.476;2023-04-10T09:49:45;16.70;68.10
50013;DHT22;35901;48.694;9.476;2023-04-10T09:52:25;16.80;68.00
50013;DHT22;35901;48.694;9.476;2023-04-10T09:55:02;16.30;68.60
50013;DHT22;35901;48.694;9.476;2023-04-10T09:57:34;16.80;71.00
50013;DHT22;35901;48.694;9.476;2023-04-10T10:00:03;17.40;72.70
50013;DHT22;35901;48.694;9.476;2023-04-10T10:02:35;17.30;66.30
50013;DHT22;35901;48.694;9.476;2023-04-10T10:05:04;16.80;66.90
50013;DHT22;35901;48.694;9.476;2023-04-10T10:07:30;16.50;67.60
50013;DHT22;35901;48.694;9.476;2023-04-10T10:09:58;16.90;67.40
50013;DHT22;35901;48.694;9.476;2023-04-10T10:12:50;17.10;69.30
50013;DHT22;35901;48.694;9.476;2023-04-10T10:15:45;17.50;60.90
50013;DHT22;35901;48.694;9.476;2023-04-10T10:21:13;17.10;64.80
50013;DHT22;35901;48.694;9.476;2023-04-10T10:23:41;17.00;66.00
50013;DHT22;35901;48.694;9.476;2023-04-10T10:26:09;17.60;64.00
50013;DHT22;35901;48.694;9.476;2023-04-10T10:28:35;17.80;58.90
50013;DHT22;35901;48.694;9.476;2023-04-10T10:31:02;17.70;60.40
50013;DHT22;35901;48.694;9.476;2023-04-10T10:33:29;18.30;66.90
50013;DHT22;35901;48.694;9.476;2023-04-10T10:35:59;17.90;63.10
50013;DHT22;35901;48.694;9.476;2023-04-10T10:38:26;17.70;58.40
50013;DHT22;35901;48.694;9.476;2023-04-10T10:41:04;18.40;64.30
50013;DHT22;35901;48.694;9.476;2023-04-10T10:46:09;18.50;62.70
50013;DHT22;35901;48.694;9.476;2023-04-10T10:48:38;18.60;66.60
50013;DHT22;35901;48.694;9.476;2023-04-10T10:51:05;18.30;62.70
50013;DHT22;35901;48.694;9.476;2023-04-10T10:53:37;17.90;56.50
50013;DHT22;35901;48.694;9.476;2023-04-10T10:58:48;17.80;60.50
50013;DHT22;35901;48.694;9.476;2023-04-10T11:01:15;18.40;60.60
50013;DHT22;35901;48.694;9.476;2023-04-10T11:03:41;18.90;61.60
50013;DHT22;35901;48.694;9.476;2023-04-10T11:06:11;18.90;63.40
50013;DHT22;35901;48.694;9.476;2023-04-10T11:08:45;18.50;58.90
50013;DHT22;35901;48.694;9.476;2023-04-10T11:11:55;18.70;59.70
50013;DHT22;35901;48.694;9.476;2023-04-10T11:19:02;18.90;59.50
50013;DHT22;35901;48.694;9.476;2023-04-10T11:21:29;18.00;57.50
50013;DHT22;35901;48.694;9.476;2023-04-10T11:29:04;17.20;57.40
50013;DHT22;35901;48.694;9.476;2023-04-10T11:31:31;17.00;58.30
50013;DHT22;35901;48.694;9.476;2023-04-10T11:34:07;17.10;59.70
50013;DHT22;35901;48.694;9.476;2023-04-10T11:36:36;17.30;58.30
50013;DHT22;35901;48.694;9.476;2023-04-10T11:39:07;17.60;60.20
50013;DHT22;35901;48.694;9.476;2023-04-10T11:41:41;17.90;57.40
50013;DHT22;35901;48.694;9.476;2023-04-10T11:44:09;18.20;51.90
50013;DHT22;35901;48.694;9.476;2023-04-10T11:46:36;18.70;50.60
50013;DHT22;35901;48.694;9.476;2023-04-10T11:49:04;18.30;55.20
50013;DHT22;35901;48.694;9.476;2023-04-10T11:51:30;18.20;55.00
50013;DHT22;35901;48.694;9.476;2023-04-10T11:54:10;18.90;55.70
50013;DHT22;35901;48.694;9.476;2023-04-10T11:56:37;18.30;51.20
50013;DHT22;35901;48.694;9.476;2023-04-10T11:59:04;18.40;55.20
50013;DHT22;35901;48.694;9.476;2023-04-10T12:01:36;18.20;54.90
50013;DHT22;35901;48.694;9.476;2023-04-10T12:04:02;18.00;54.30
50013;DHT22;35901;48.694;9.476;2023-04-10T12:06:28;17.90;54.10
50013;DHT22;35901;48.694;9.476;2023-04-10T12:08:54;18.40;57.10
50013;DHT22;35901;48.694;9.476;2023-04-10T12:11:22;18.30;53.80
50013;DHT22;35901;48.694;9.476;2023-04-10T12:13:53;18.30;57.30
50013;DHT22;35901;48.694;9.476;2023-04-10T12:16:19;18.40;61.40
50013;DHT22;35901;48.694;9.476;2023-04-10T12:18:47;19.20;57.10
50013;DHT22;35901;48.694;9.476;2023-04-10T12:21:12;19.40;55.20
50013;DHT22;35901;48.694;9.476;2023-04-10T12:23:39;19.80;56.50
50013;DHT22;35901;48.694;9.476;2023-04-10T12:26:15;19.20;54.90
50013;DHT22;35901;48.694;9.476;2023-04-10T12:28:53;18.20;54.70
50013;DHT22;35901;48.694;9.476;2023-04-10T12:31:29;18.50;58.40
50013;DHT22;35901;48.694;9.476;2023-04-10T12:33:56;18.90;57.00
50013;DHT22;35901;48.694;9.476;2023-04-10T12:36:27;18.80;56.20
50013;DHT22;35901;48.694;9.476;2023-04-10T12:39:03;18.20;52.50
50013;DHT22;35901;48.694;9.476;2023-04-10T12:41:31;18.00;53.50
50013;DHT22;35901;48.694;9.476;2023-04-10T12:44:09;18.00;53.50
50013;DHT22;35901;48.694;9.476;2023-04-10T12:46:35;18.30;52.80
50013;DHT22;35901;48.694;9.476;2023-04-10T12:49:12;18.50;51.50
50013;DHT22;35901;48.694;9.476;2023-04-10T12:51:51;18.50;53.10
50013;DHT22;35901;48.694;9.476;2023-04-10T12:54:33;18.70;55.10
50013;DHT22;35901;48.694;9.476;2023-04-10T12:57:02;18.50;51.80
50013;DHT22;35901;48.694;9.476;2023-04-10T12:59:29;18.30;52.30
50013;DHT22;35901;48.694;9.476;2023-04-10T13:01:54;18.60;53.50
50013;DHT22;35901;48.694;9.476;2023-04-10T13:04:20;19.60;57.30
50013;DHT22;35901;48.694;9.476;2023-04-10T13:06:48;19.10;56.70
50013;DHT22;35901;48.694;9.476;2023-04-10T13:09:17;18.90;52.30
50013;DHT22;35901;48.694;9.476;2023-04-10T13:11:42;19.50;53.10
50013;DHT22;35901;48.694;9.476;2023-04-10T13:14:08;18.90;55.20
50013;DHT22;35901;48.694;9.476;2023-04-10T13:16:34;18.20;51.00
50013;DHT22;35901;48.694;9.476;2023-04-10T13:19:00;18.10;54.80
50013;DHT22;35901;48.694;9.476;2023-04-10T13:21:26;18.10;54.20
50013;DHT22;35901;48.694;9.476;2023-04-10T13:23:53;18.10;57.00
50013;DHT22;35901;48.694;9.476;2023-04-10T13:26:20;18.60;53.90
50013;DHT22;35901;48.694;9.476;2023-04-10T13:28:46;17.90;52.90
50013;DHT22;35901;48.694;9.476;2023-04-10T13:31:12;18.30;51.20
50013;DHT22;35901;48.694;9.476;2023-04-10T13:33:49;18.30;57.00
50013;DHT22;35901;48.694;9.476;2023-04-10T13:36:15;18.20;52.90
50013;DHT22;35901;48.694;9.476;2023-04-10T13:38:40;18.50;55.70
50013;DHT22;35901;48.694;9.476;2023-04-10T13:41:06;18.40;55.90
50013;DHT22;35901;48.694;9.476;2023-04-10T13:43:32;18.50;54.30
50013;DHT22;35901;48.694;9.476;2023-04-10T13:45:58;18.50;57.90
50013;DHT22;35901;48.694;9.476;2023-04-10T13:48:24;18.20;54.10
50013;DHT22;35901;48.694;9.476;2023-04-10T13:50:50;18.30;53.70
50013;DHT22;35901;48.694;9.476;2023-04-10T13:53:16;18.20;51.30
50013;DHT22;35901;48.694;9.476;2023-04-10T13:55:41;18.30;56.20
50013;DHT22;35901;48.694;9.476;2023-04-10T13:58:09;18.20;53.30
50013;DHT22;35901;48.694;9.476;2023-04-10T14:00:38;17.80;49.70
50013;DHT22;35901;48.694;9.476;2023-04-10T14:03:03;17.50;50.70
50013;DHT22;35901;48.694;9.476;2023-04-10T14:05:29;17.60;50.60
50013;DHT22;35901;48.694;9.476;2023-04-10T14:07:55;17.60;51.40
50013;DHT22;35901;48.694;9.476;2023-04-10T14:10:24;17.70;51.00
50013;DHT22;35901;48.694;9.476;2023-04-10T14:12:50;18.10;55.90
50013;DHT22;35901;48.694;9.476;2023-04-10T14:15:16;18.40;51.00
50013;DHT22;35901;48.694;9.476;2023-04-10T14:17:42;17.90;57.40
50013;DHT22;35901;48.694;9.476;2023-04-10T14:20:08;17.80;52.60
50013;DHT22;35901;48.694;9.476;2023-04-10T14:22:36;17.70;52.20
50013;DHT22;35901;48.694;9.476;2023-04-10T14:25:02;17.70;52.60
50013;DHT22;35901;48.694;9.476;2023-04-10T14:27:29;17.60;52.00
50013;DHT22;35901;48.694;9.476;2023-04-10T14:29:56;17.70;55.30
50013;DHT22;35901;48.694;9.476;2023-04-10T14:32:22;17.80;54.80
50013;DHT22;35901;48.694;9.476;2023-04-10T14:34:48;17.70;54.50
50013;DHT22;35901;48.694;9.476;2023-04-10T14:37:13;17.80;54.30
50013;DHT22;35901;48.694;9.476;2023-04-10T14:39:39;18.10;55.90
50013;DHT22;35901;48.694;9.476;2023-04-10T14:42:05;17.70;53.10
50013;DHT22;35901;48.694;9.476;2023-04-10T14:44:31;17.80;56.60
50013;DHT22;35901;48.694;9.476;2023-04-10T14:46:57;17.90;55.10
50013;DHT22;35901;48.694;9.476;2023-04-10T14:49:23;17.70;51.80
50013;DHT22;35901;48.694;9.476;2023-04-10T14:51:48;17.60;50.40
50013;DHT22;35901;48.694;9.476;2023-04-10T14:54:14;17.70;50.00
50013;DHT22;35901;48.694;9.476;2023-04-10T14:56:47;17.60;50.20
50013;DHT22;35901;48.694;9.476;2023-04-10T14:59:14;17.60;54.60
50013;DHT22;35901;48.694;9.476;2023-04-10T15:01:40;17.80;52.50
50013;DHT22;35901;48.694;9.476;2023-04-10T15:04:06;17.60;58.20
50013;DHT22;35901;48.694;9.476;2023-04-10T15:06:33;17.60;62.60
50013;DHT22;35901;48.694;9.476;2023-04-10T15:08:59;17.40;59.70
50013;DHT22;35901;48.694;9.476;2023-04-10T15:11:24;17.40;56.40
50013;DHT22;35901;48.694;9.476;2023-04-10T15:13:50;17.40;53.80
50013;DHT22;35901;48.694;9.476;2023-04-10T15:16:16;17.40;53.20
50013;DHT22;35901;48.694;9.476;2023-04-10T15:18:41;17.30;53.90
50013;DHT22;35901;48.694;9.476;2023-04-10T15:21:07;17.30;53.50
50013;DHT22;35901;48.694;9.476;2023-04-10T15:23:33;17.40;53.90
50013;DHT22;35901;48.694;9.476;2023-04-10T15:25:59;17.50;55.90
50013;DHT22;35901;48.694;9.476;2023-04-10T15:28:25;17.50;55.60
50013;DHT22;35901;48.694;9.476;2023-04-10T15:30:52;17.60;55.00
50013;DHT22;35901;48.694;9.476;2023-04-10T15:33:18;17.50;52.90
50013;DHT22;35901;48.694;9.476;2023-04-10T15:35:49;17.50;53.30
50013;DHT22;35901;48.694;9.476;2023-04-10T15:38:14;17.40;54.30
50013;DHT22;35901;48.694;9.476;2023-04-10T15:40:40;17.30;54.80
50013;DHT22;35901;48.694;9.476;2023-04-10T15:43:06;17.20;53.20
50013;DHT22;35901;48.694;9.476;2023-04-10T15:45:32;17.20;55.10
50013;DHT22;35901;48.694;9.476;2023-04-10T15:47:57;17.00;57.00
50013;DHT22;35901;48.694;9.476;2023-04-10T15:50:25;16.90;54.50
50013;DHT22;35901;48.694;9.476;2023-04-10T15:52:51;16.80;55.80
50013;DHT22;35901;48.694;9.476;2023-04-10T15:55:17;16.80;56.60
50013;DHT22;35901;48.694;9.476;2023-04-10T15:57:43;16.80;54.50
50013;DHT22;35901;48.694;9.476;2023-04-10T16:00:09;16.70;56.10
50013;DHT22;35901;48.694;9.476;2023-04-10T16:02:34;16.70;54.50
50013;DHT22;35901;48.694;9.476;2023-04-10T16:05:00;16.60;54.40
50013;DHT22;35901;48.694;9.476;2023-04-10T16:07:28;16.60;54.80
50013;DHT22;35901;48.694;9.476;2023-04-10T16:09:54;16.60;57.50
50013;DHT22;35901;48.694;9.476;2023-04-10T16:12:21;16.50;56.90
50013;DHT22;35901;48.694;9.476;2023-04-10T16:14:46;16.40;56.90
50013;DHT22;35901;48.694;9.476;2023-04-10T16:17:12;16.50;57.60
50013;DHT22;35901;48.694;9.476;2023-04-10T16:19:38;16.60;58.80
50013;DHT22;35901;48.694;9.476;2023-04-10T16:22:03;16.30;57.90
50013;DHT22;35901;48.694;9.476;2023-04-10T16:24:29;16.20;60.00
50013;DHT22;35901;48.694;9.476;2023-04-10T16:26:54;16.10;58.10